sensor_id;sensor_type;location;lat;lon;timestamp;temperature;humidity
4874;DHT22;2451;49.970;9.068;2022-09-28T00:01:22;9.10;99.90
4874;DHT22;2451;49.970;9.068;2022-09-28T00:03:49;9.20;99.90
4874;DHT22;2451;49.970;9.068;2022-09-28T00:06:17;9.20;99.90
4874;DHT22;2451;49.970;9.068;2022-09-28T00:08:44;9.20;99.90
4874;DHT22;2451;49.970;9.068;2022-09-28T00:11:12;9.20;99.90
4874;DHT22;2451;49.970;9.068;2022-09-28T00:13:40;9.30;99.90
4874;DHT22;2451;49.970;9.068;2022-09-28T00:16:08;9.30;99.90
4874;DHT22;2451;49.970;9.068;2022-09-28T00:18:34;9.30;99.90
4874;DHT22;2451;49.970;9.068;2022-09-28T00:21:03;9.30;99.90
4874;DHT22;2451;49.970;9.068;2022-09-28T00:23:30;9.40;99.90
4874;DHT22;2451;49.970;9.068;2022-09-28T00:25:55;9.40;99.90
4874;DHT22;2451;49.970;9.068;2022-09-28T00:28:21;9.40;99.90
4874;DHT22;2451;49.970;9.068;2022-09-28T00:30:46;9.40;99.90
4874;DHT22;2451;49.970;9.068;2022-09-28T00:33:12;9.40;99.90
4874;DHT22;2451;49.970;9.068;2022-09-28T00:35:37;9.30;99.90
4874;DHT22;2451;49.970;9.068;2022-09-28T00:38:03;9.30;99.90
4874;DHT22;2451;49.970;9.068;2022-09-28T00:40:28;9.30;99.90
4874;DHT22;2451;49.970;9.068;2022-09-28T00:42:54;9.30;99.90
4874;DHT22;2451;49.970;9.068;2022-09-28T00:45:21;9.20;99.90
4874;DHT22;2451;49.970;9.068;2022-09-28T00:47:54;9.20;99.90
4874;DHT22;2451;49.970;9.068;2022-09-28T00:50:34;9.30;99.90
4874;DHT22;2451;49.970;9.068;2022-09-28T00:53:16;9.30;99.90
4874;DHT22;2451;49.970;9.068;2022-09-28T00:55:45;9.30;99.90
4874;DHT22;2451;49.970;9.068;2022-09-28T00:58:15;9.30;99.90
4874;DHT22;2451;49.970;9.068;2022-09-28T01:00:42;9.30;99.90
4874;DHT22;2451;49.970;9.068;2022-09-28T01:03:09;9.30;99.90
4874;DHT22;2451;49.970;9.068;2022-09-28T01:05:36;9.20;99.90
4874;DHT22;2451;49.970;9.068;2022-09-28T01:08:03;9.20;99.90
4874;DHT22;2451;49.970;9.068;2022-09-28T01:10:29;9.20;99.90
4874;DHT22;2451;49.970;9.068;2022-09-28T01:12:55;9.10;99.90
4874;DHT22;2451;49.970;9.068;2022-09-28T01:15:22;9.10;99.90
4874;DHT22;2451;49.970;9.068;2022-09-28T01:18:12;9.10;99.90
4874;DHT22;2451;49.970;9.068;2022-09-28T01:20:53;9.10;99.90
4874;DHT22;2451;49.970;9.068;2022-09-28T01:29:05;9.20;99.90
4874;DHT22;2451;49.970;9.068;2022-09-28T01:31:35;9.20;99.90
4874;DHT22;2451;49.970;9.068;2022-09-28T01:34:14;9.20;99.90
4874;DHT22;2451;49.970;9.068;2022-09-28T01:36:48;9.20;99.90
4874;DHT22;2451;49.970;9.068;2022-09-28T01:39:19;9.20;99.90
4874;DHT22;2451;49.970;9.068;2022-09-28T01:41:49;9.20;99.90
4874;DHT22;2451;49.970;9.068;2022-09-28T01:44:16;9.20;99.90
4874;DHT22;2451;49.970;9.068;2022-09-28T01:46:48;9.20;99.90
4874;DHT22;2451;49.970;9.068;2022-09-28T01:49:25;9.20;99.90
4874;DHT22;2451;49.970;9.068;2022-09-28T01:52:05;9.20;99.90
4874;DHT22;2451;49.970;9.068;2022-09-28T01:54:39;9.10;99.90
4874;DHT22;2451;49.970;9.068;2022-09-28T01:57:17;9.10;99.90
4874;DHT22;2451;49.970;9.068;2022-09-28T02:00:03;9.10;99.90
4874;DHT22;2451;49.970;9.068;2022-09-28T02:02:34;9.10;99.90
4874;DHT22;2451;49.970;9.068;2022-09-28T02:05:23;9.10;99.90
4874;DHT22;2451;49.970;9.068;2022-09-28T02:08:13;9.20;99.90
4874;DHT22;2451;49.970;9.068;2022-09-28T02:11:16;9.20;99.90
4874;DHT22;2451;49.970;9.068;2022-09-28T02:13:46;9.20;99.90
4874;DHT22;2451;49.970;9.068;2022-09-28T02:19:02;9.30;99.90
4874;DHT22;2451;49.970;9.068;2022-09-28T02:21:47;9.30;99.90
4874;DHT22;2451;49.970;9.068;2022-09-28T02:24:34;9.30;99.90
4874;DHT22;2451;49.970;9.068;2022-09-28T02:27:04;9.30;99.90
4874;DHT22;2451;49.970;9.068;2022-09-28T02:29:32;9.30;99.90
4874;DHT22;2451;49.970;9.068;2022-09-28T02:31:58;9.30;99.90
4874;DHT22;2451;49.970;9.068;2022-09-28T02:34:24;9.30;99.90
4874;DHT22;2451;49.970;9.068;2022-09-28T02:36:50;9.40;99.90
4874;DHT22;2451;49.970;9.068;2022-09-28T02:39:16;9.40;99.90
4874;DHT22;2451;49.970;9.068;2022-09-28T02:44:44;9.40;99.90
4874;DHT22;2451;49.970;9.068;2022-09-28T02:52:54;9.50;99.90
4874;DHT22;2451;49.970;9.068;2022-09-28T02:58:34;9.50;99.90
4874;DHT22;2451;49.970;9.068;2022-09-28T03:04:20;9.40;99.90
4874;DHT22;2451;49.970;9.068;2022-09-28T03:07:05;9.50;99.90
4874;DHT22;2451;49.970;9.068;2022-09-28T03:09:36;9.50;99.90
4874;DHT22;2451;49.970;9.068;2022-09-28T03:12:08;9.50;99.90
4874;DHT22;2451;49.970;9.068;2022-09-28T03:14:36;9.60;99.90
4874;DHT22;2451;49.970;9.068;2022-09-28T03:17:01;9.60;99.90
4874;DHT22;2451;49.970;9.068;2022-09-28T03:19:30;9.60;99.90
4874;DHT22;2451;49.970;9.068;2022-09-28T03:21:56;9.60;99.90
4874;DHT22;2451;49.970;9.068;2022-09-28T03:24:23;9.60;99.90
4874;DHT22;2451;49.970;9.068;2022-09-28T03:26:48;9.60;99.90
4874;DHT22;2451;49.970;9.068;2022-09-28T03:29:14;9.60;99.90
4874;DHT22;2451;49.970;9.068;2022-09-28T03:31:40;9.60;99.90
4874;DHT22;2451;49.970;9.068;2022-09-28T03:34:05;9.70;99.90
4874;DHT22;2451;49.970;9.068;2022-09-28T03:36:30;9.70;99.90
4874;DHT22;2451;49.970;9.068;2022-09-28T03:38:56;9.70;99.90
4874;DHT22;2451;49.970;9.068;2022-09-28T03:41:23;9.70;99.90
4874;DHT22;2451;49.970;9.068;2022-09-28T03:43:49;9.70;99.90
4874;DHT22;2451;49.970;9.068;2022-09-28T03:46:15;9.60;99.90
4874;DHT22;2451;49.970;9.068;2022-09-28T03:48:40;9.60;99.90
4874;DHT22;2451;49.970;9.068;2022-09-28T03:51:08;9.60;99.90
4874;DHT22;2451;49.970;9.068;2022-09-28T03:53:35;9.60;99.90
4874;DHT22;2451;49.970;9.068;2022-09-28T03:56:06;9.50;99.90
4874;DHT22;2451;49.970;9.068;2022-09-28T03:58:32;9.40;99.90
4874;DHT22;2451;49.970;9.068;2022-09-28T04:01:06;9.30;99.90
4874;DHT22;2451;49.970;9.068;2022-09-28T04:03:32;9.30;99.90
4874;DHT22;2451;49.970;9.068;2022-09-28T04:05:58;9.20;99.90
4874;DHT22;2451;49.970;9.068;2022-09-28T04:08:24;9.20;99.90
4874;DHT22;2451;49.970;9.068;2022-09-28T04:10:49;9.20;99.90
4874;DHT22;2451;49.970;9.068;2022-09-28T04:13:15;9.10;99.90
4874;DHT22;2451;49.970;9.068;2022-09-28T04:15:41;9.10;99.90
4874;DHT22;2451;49.970;9.068;2022-09-28T04:18:11;9.10;99.90
4874;DHT22;2451;49.970;9.068;2022-09-28T04:20:36;9.10;99.90
4874;DHT22;2451;49.970;9.068;2022-09-28T04:23:05;9.10;99.90
4874;DHT22;2451;49.970;9.068;2022-09-28T04:25:30;9.10;99.90
4874;DHT22;2451;49.970;9.068;2022-09-28T04:27:56;9.10;99.90
4874;DHT22;2451;49.970;9.068;2022-09-28T04:30:40;9.20;99.90
4874;DHT22;2451;49.970;9.068;2022-09-28T04:33:05;9.20;99.90
4874;DHT22;2451;49.970;9.068;2022-09-28T04:35:31;9.10;99.90
4874;DHT22;2451;49.970;9.068;2022-09-28T04:37:56;9.10;99.90
4874;DHT22;2451;49.970;9.068;2022-09-28T04:40:22;9.00;99.90
4874;DHT22;2451;49.970;9.068;2022-09-28T04:42:55;9.10;99.90
4874;DHT22;2451;49.970;9.068;2022-09-28T04:45:21;9.00;99.90
4874;DHT22;2451;49.970;9.068;2022-09-28T04:47:47;9.00;99.90
4874;DHT22;2451;49.970;9.068;2022-09-28T04:50:13;9.00;99.90
4874;DHT22;2451;49.970;9.068;2022-09-28T04:52:38;9.00;99.90
4874;DHT22;2451;49.970;9.068;2022-09-28T04:55:05;8.90;99.90
4874;DHT22;2451;49.970;9.068;2022-09-28T04:57:33;8.90;99.90
4874;DHT22;2451;49.970;9.068;2022-09-28T04:59:59;8.90;99.90
4874;DHT22;2451;49.970;9.068;2022-09-28T05:02:24;8.90;99.90
4874;DHT22;2451;49.970;9.068;2022-09-28T05:04:50;8.90;99.90
4874;DHT22;2451;49.970;9.068;2022-09-28T05:07:15;8.80;99.90
4874;DHT22;2451;49.970;9.068;2022-09-28T05:09:41;8.80;99.90
4874;DHT22;2451;49.970;9.068;2022-09-28T05:12:07;8.80;99.90
4874;DHT22;2451;49.970;9.068;2022-09-28T05:14:33;8.80;99.90
4874;DHT22;2451;49.970;9.068;2022-09-28T05:16:59;8.70;99.90
4874;DHT22;2451;49.970;9.068;2022-09-28T05:19:24;8.60;99.90
4874;DHT22;2451;49.970;9.068;2022-09-28T05:21:50;8.60;99.90
4874;DHT22;2451;49.970;9.068;2022-09-28T05:24:16;8.60;99.90
4874;DHT22;2451;49.970;9.068;2022-09-28T05:26:41;8.50;99.90
4874;DHT22;2451;49.970;9.068;2022-09-28T05:29:07;8.50;99.90
4874;DHT22;2451;49.970;9.068;2022-09-28T05:31:32;8.60;99.90
4874;DHT22;2451;49.970;9.068;2022-09-28T05:33:58;8.60;99.90
4874;DHT22;2451;49.970;9.068;2022-09-28T05:36:23;8.60;99.90
4874;DHT22;2451;49.970;9.068;2022-09-28T05:38:52;8.60;99.90
4874;DHT22;2451;49.970;9.068;2022-09-28T05:41:17;8.60;99.90
4874;DHT22;2451;49.970;9.068;2022-09-28T05:43:43;8.60;99.90
4874;DHT22;2451;49.970;9.068;2022-09-28T05:46:10;8.60;99.90
4874;DHT22;2451;49.970;9.068;2022-09-28T05:48:35;8.70;99.90
4874;DHT22;2451;49.970;9.068;2022-09-28T05:51:01;8.60;99.90
4874;DHT22;2451;49.970;9.068;2022-09-28T05:53:26;8.60;99.90
4874;DHT22;2451;49.970;9.068;2022-09-28T05:55:56;8.60;99.90
4874;DHT22;2451;49.970;9.068;2022-09-28T05:58:22;8.60;99.90
4874;DHT22;2451;49.970;9.068;2022-09-28T06:00:55;8.70;99.90
4874;DHT22;2451;49.970;9.068;2022-09-28T06:03:21;8.70;99.90
4874;DHT22;2451;49.970;9.068;2022-09-28T06:05:46;8.70;99.90
4874;DHT22;2451;49.970;9.068;2022-09-28T06:08:12;8.70;99.90
4874;DHT22;2451;49.970;9.068;2022-09-28T06:10:38;8.70;99.90
4874;DHT22;2451;49.970;9.068;2022-09-28T06:13:04;8.70;99.90
4874;DHT22;2451;49.970;9.068;2022-09-28T06:15:32;8.70;99.90
4874;DHT22;2451;49.970;9.068;2022-09-28T06:20:29;8.70;99.90
4874;DHT22;2451;49.970;9.068;2022-09-28T06:22:55;8.80;99.90
4874;DHT22;2451;49.970;9.068;2022-09-28T06:25:22;8.70;99.90
4874;DHT22;2451;49.970;9.068;2022-09-28T06:28:02;8.70;99.90
4874;DHT22;2451;49.970;9.068;2022-09-28T06:30:29;8.70;99.90
4874;DHT22;2451;49.970;9.068;2022-09-28T06:32:56;8.70;99.90
4874;DHT22;2451;49.970;9.068;2022-09-28T06:35:23;8.80;99.90
4874;DHT22;2451;49.970;9.068;2022-09-28T06:37:50;8.80;99.90
4874;DHT22;2451;49.970;9.068;2022-09-28T06:40:16;9.00;99.90
4874;DHT22;2451;49.970;9.068;2022-09-28T06:42:42;9.50;99.90
4874;DHT22;2451;49.970;9.068;2022-09-28T06:45:08;10.20;99.90
4874;DHT22;2451;49.970;9.068;2022-09-28T06:47:35;10.60;99.90
4874;DHT22;2451;49.970;9.068;2022-09-28T06:50:00;10.90;99.90
4874;DHT22;2451;49.970;9.068;2022-09-28T06:52:26;11.20;99.90
4874;DHT22;2451;49.970;9.068;2022-09-28T06:54:51;11.40;99.90
4874;DHT22;2451;49.970;9.068;2022-09-28T06:57:17;11.20;99.90
4874;DHT22;2451;49.970;9.068;2022-09-28T06:59:43;11.10;99.90
4874;DHT22;2451;49.970;9.068;2022-09-28T07:02:10;11.40;99.90
4874;DHT22;2451;49.970;9.068;2022-09-28T07:04:40;11.80;99.90
4874;DHT22;2451;49.970;9.068;2022-09-28T07:07:08;12.00;99.90
4874;DHT22;2451;49.970;9.068;2022-09-28T07:09:34;12.50;99.90
4874;DHT22;2451;49.970;9.068;2022-09-28T07:12:01;12.80;99.90
4874;DHT22;2451;49.970;9.068;2022-09-28T07:14:28;13.00;99.90
4874;DHT22;2451;49.970;9.068;2022-09-28T07:16:54;13.20;99.90
4874;DHT22;2451;49.970;9.068;2022-09-28T07:19:20;13.10;99.90
4874;DHT22;2451;49.970;9.068;2022-09-28T07:21:46;12.60;99.90
4874;DHT22;2451;49.970;9.068;2022-09-28T07:24:11;12.20;99.90
4874;DHT22;2451;49.970;9.068;2022-09-28T07:26:38;11.80;99.90
4874;DHT22;2451;49.970;9.068;2022-09-28T07:29:04;11.40;99.90
4874;DHT22;2451;49.970;9.068;2022-09-28T07:31:30;11.00;99.90
4874;DHT22;2451;49.970;9.068;2022-09-28T07:33:58;11.00;99.90
4874;DHT22;2451;49.970;9.068;2022-09-28T07:36:23;11.00;99.90
4874;DHT22;2451;49.970;9.068;2022-09-28T07:38:49;11.30;99.90
4874;DHT22;2451;49.970;9.068;2022-09-28T07:41:14;11.70;99.90
4874;DHT22;2451;49.970;9.068;2022-09-28T07:43:45;11.90;99.90
4874;DHT22;2451;49.970;9.068;2022-09-28T07:46:11;12.20;99.90
4874;DHT22;2451;49.970;9.068;2022-09-28T07:48:41;12.50;99.90
4874;DHT22;2451;49.970;9.068;2022-09-28T07:51:07;12.50;99.90
4874;DHT22;2451;49.970;9.068;2022-09-28T07:53:33;12.20;99.90
4874;DHT22;2451;49.970;9.068;2022-09-28T07:56:01;12.00;99.90
4874;DHT22;2451;49.970;9.068;2022-09-28T07:58:32;11.90;99.90
4874;DHT22;2451;49.970;9.068;2022-09-28T08:01:03;11.80;99.90
4874;DHT22;2451;49.970;9.068;2022-09-28T08:03:29;11.80;99.90
4874;DHT22;2451;49.970;9.068;2022-09-28T08:05:59;11.80;99.90
4874;DHT22;2451;49.970;9.068;2022-09-28T08:08:25;12.00;99.90
4874;DHT22;2451;49.970;9.068;2022-09-28T08:10:51;12.30;99.90
4874;DHT22;2451;49.970;9.068;2022-09-28T08:13:17;12.50;99.90
4874;DHT22;2451;49.970;9.068;2022-09-28T08:15:43;12.80;99.90
4874;DHT22;2451;49.970;9.068;2022-09-28T08:18:09;12.60;99.90
4874;DHT22;2451;49.970;9.068;2022-09-28T08:20:35;12.40;99.90
4874;DHT22;2451;49.970;9.068;2022-09-28T08:23:19;12.30;99.90
4874;DHT22;2451;49.970;9.068;2022-09-28T08:25:46;12.20;99.90
4874;DHT22;2451;49.970;9.068;2022-09-28T08:28:14;12.10;99.90
4874;DHT22;2451;49.970;9.068;2022-09-28T08:30:41;12.00;99.90
4874;DHT22;2451;49.970;9.068;2022-09-28T08:33:07;11.70;99.90
4874;DHT22;2451;49.970;9.068;2022-09-28T08:35:33;11.70;99.90
4874;DHT22;2451;49.970;9.068;2022-09-28T08:37:58;11.70;99.90
4874;DHT22;2451;49.970;9.068;2022-09-28T08:40:24;11.70;99.90
4874;DHT22;2451;49.970;9.068;2022-09-28T08:43:00;11.70;99.90
4874;DHT22;2451;49.970;9.068;2022-09-28T08:45:28;11.50;99.90
4874;DHT22;2451;49.970;9.068;2022-09-28T08:48:04;11.50;99.90
4874;DHT22;2451;49.970;9.068;2022-09-28T08:51:02;11.30;99.90
4874;DHT22;2451;49.970;9.068;2022-09-28T08:53:49;11.20;99.90
4874;DHT22;2451;49.970;9.068;2022-09-28T08:56:28;11.40;99.90
4874;DHT22;2451;49.970;9.068;2022-09-28T08:59:03;11.80;99.90
4874;DHT22;2451;49.970;9.068;2022-09-28T09:01:36;12.20;99.90
4874;DHT22;2451;49.970;9.068;2022-09-28T09:04:04;12.40;99.90
4874;DHT22;2451;49.970;9.068;2022-09-28T09:09:13;12.80;99.90
4874;DHT22;2451;49.970;9.068;2022-09-28T09:17:26;13.20;99.90
4874;DHT22;2451;49.970;9.068;2022-09-28T09:20:10;13.50;99.90
4874;DHT22;2451;49.970;9.068;2022-09-28T09:22:52;13.60;99.90
4874;DHT22;2451;49.970;9.068;2022-09-28T09:34:00;13.90;99.90
4874;DHT22;2451;49.970;9.068;2022-09-28T09:37:05;13.50;99.90
4874;DHT22;2451;49.970;9.068;2022-09-28T09:39:51;13.30;99.90
4874;DHT22;2451;49.970;9.068;2022-09-28T09:42:34;13.30;99.90
4874;DHT22;2451;49.970;9.068;2022-09-28T09:48:02;14.00;99.90
4874;DHT22;2451;49.970;9.068;2022-09-28T09:50:38;13.80;99.90
4874;DHT22;2451;49.970;9.068;2022-09-28T09:53:17;14.10;99.90
4874;DHT22;2451;49.970;9.068;2022-09-28T09:55:45;14.50;99.90
4874;DHT22;2451;49.970;9.068;2022-09-28T09:58:35;14.60;99.90
4874;DHT22;2451;49.970;9.068;2022-09-28T10:01:11;14.60;99.90
4874;DHT22;2451;49.970;9.068;2022-09-28T10:03:41;14.30;99.90
4874;DHT22;2451;49.970;9.068;2022-09-28T10:06:11;14.00;99.90
4874;DHT22;2451;49.970;9.068;2022-09-28T10:08:43;13.70;99.90
4874;DHT22;2451;49.970;9.068;2022-09-28T10:11:18;13.60;99.90
4874;DHT22;2451;49.970;9.068;2022-09-28T10:13:46;13.60;99.90
4874;DHT22;2451;49.970;9.068;2022-09-28T10:16:12;13.50;99.90
4874;DHT22;2451;49.970;9.068;2022-09-28T10:18:38;13.40;99.90
4874;DHT22;2451;49.970;9.068;2022-09-28T10:21:04;13.40;99.90
4874;DHT22;2451;49.970;9.068;2022-09-28T10:23:32;13.30;99.90
4874;DHT22;2451;49.970;9.068;2022-09-28T10:26:36;13.20;99.90
4874;DHT22;2451;49.970;9.068;2022-09-28T10:29:11;13.10;99.90
4874;DHT22;2451;49.970;9.068;2022-09-28T10:31:42;12.90;99.90
4874;DHT22;2451;49.970;9.068;2022-09-28T10:34:13;12.90;99.90
4874;DHT22;2451;49.970;9.068;2022-09-28T10:36:50;13.40;99.90
4874;DHT22;2451;49.970;9.068;2022-09-28T10:39:55;13.50;99.90
4874;DHT22;2451;49.970;9.068;2022-09-28T10:42:32;13.60;99.90
4874;DHT22;2451;49.970;9.068;2022-09-28T10:45:22;13.50;99.90
4874;DHT22;2451;49.970;9.068;2022-09-28T10:47:48;13.40;99.90
4874;DHT22;2451;49.970;9.068;2022-09-28T10:50:22;13.30;99.90
4874;DHT22;2451;49.970;9.068;2022-09-28T10:52:49;13.10;99.90
4874;DHT22;2451;49.970;9.068;2022-09-28T10:55:30;12.90;99.90
4874;DHT22;2451;49.970;9.068;2022-09-28T10:57:58;12.80;99.90
4874;DHT22;2451;49.970;9.068;2022-09-28T11:00:39;12.70;99.90
4874;DHT22;2451;49.970;9.068;2022-09-28T11:03:08;12.70;99.90
4874;DHT22;2451;49.970;9.068;2022-09-28T11:05:40;12.70;99.90
4874;DHT22;2451;49.970;9.068;2022-09-28T11:08:14;12.70;99.90
4874;DHT22;2451;49.970;9.068;2022-09-28T11:10:46;12.80;99.90
4874;DHT22;2451;49.970;9.068;2022-09-28T11:13:12;12.80;99.90
4874;DHT22;2451;49.970;9.068;2022-09-28T11:15:41;12.70;99.90
4874;DHT22;2451;49.970;9.068;2022-09-28T11:18:28;12.60;99.90
4874;DHT22;2451;49.970;9.068;2022-09-28T11:21:11;12.60;99.90
4874;DHT22;2451;49.970;9.068;2022-09-28T11:23:38;12.60;99.90
4874;DHT22;2451;49.970;9.068;2022-09-28T11:26:07;12.60;99.90
4874;DHT22;2451;49.970;9.068;2022-09-28T11:28:35;12.70;99.90
4874;DHT22;2451;49.970;9.068;2022-09-28T11:31:02;12.70;99.90
4874;DHT22;2451;49.970;9.068;2022-09-28T11:33:32;12.80;99.90
4874;DHT22;2451;49.970;9.068;2022-09-28T11:36:08;12.90;99.90
4874;DHT22;2451;49.970;9.068;2022-09-28T11:39:03;13.00;99.90
4874;DHT22;2451;49.970;9.068;2022-09-28T11:44:51;13.80;99.90
4874;DHT22;2451;49.970;9.068;2022-09-28T11:52:58;14.60;99.90
4874;DHT22;2451;49.970;9.068;2022-09-28T11:55:34;14.50;99.90
4874;DHT22;2451;49.970;9.068;2022-09-28T11:58:09;14.40;99.90
4874;DHT22;2451;49.970;9.068;2022-09-28T12:00:41;14.40;99.90
4874;DHT22;2451;49.970;9.068;2022-09-28T12:03:19;14.50;99.90
4874;DHT22;2451;49.970;9.068;2022-09-28T12:05:50;14.80;99.90
4874;DHT22;2451;49.970;9.068;2022-09-28T12:08:32;14.80;99.90
4874;DHT22;2451;49.970;9.068;2022-09-28T12:11:01;14.80;99.90
4874;DHT22;2451;49.970;9.068;2022-09-28T12:13:37;14.60;99.90
4874;DHT22;2451;49.970;9.068;2022-09-28T12:16:31;14.50;99.90
4874;DHT22;2451;49.970;9.068;2022-09-28T12:19:03;14.40;99.90
4874;DHT22;2451;49.970;9.068;2022-09-28T12:21:55;14.20;99.90
4874;DHT22;2451;49.970;9.068;2022-09-28T12:24:32;14.00;99.90
4874;DHT22;2451;49.970;9.068;2022-09-28T12:30:11;13.90;99.90
4874;DHT22;2451;49.970;9.068;2022-09-28T12:32:55;13.80;99.90
4874;DHT22;2451;49.970;9.068;2022-09-28T12:40:51;13.90;99.90
4874;DHT22;2451;49.970;9.068;2022-09-28T12:43:41;13.90;99.90
4874;DHT22;2451;49.970;9.068;2022-09-28T12:49:24;14.00;99.90
4874;DHT22;2451;49.970;9.068;2022-09-28T12:51:54;14.10;99.90
4874;DHT22;2451;49.970;9.068;2022-09-28T12:55:03;14.20;99.90
4874;DHT22;2451;49.970;9.068;2022-09-28T13:00:19;14.00;99.90
4874;DHT22;2451;49.970;9.068;2022-09-28T13:06:13;13.90;99.90
4874;DHT22;2451;49.970;9.068;2022-09-28T13:09:16;13.80;99.90
4874;DHT22;2451;49.970;9.068;2022-09-28T13:11:54;13.80;99.90
4874;DHT22;2451;49.970;9.068;2022-09-28T13:20:22;13.70;99.90
4874;DHT22;2451;49.970;9.068;2022-09-28T13:22:52;13.80;99.90
4874;DHT22;2451;49.970;9.068;2022-09-28T13:25:24;13.70;99.90
4874;DHT22;2451;49.970;9.068;2022-09-28T13:27:58;13.70;99.90
4874;DHT22;2451;49.970;9.068;2022-09-28T13:30:25;13.70;99.90
4874;DHT22;2451;49.970;9.068;2022-09-28T13:32:53;13.80;99.90
4874;DHT22;2451;49.970;9.068;2022-09-28T13:35:20;13.90;99.90
4874;DHT22;2451;49.970;9.068;2022-09-28T13:37:47;13.90;99.90
4874;DHT22;2451;49.970;9.068;2022-09-28T13:46:12;13.90;99.90
4874;DHT22;2451;49.970;9.068;2022-09-28T13:49:13;13.80;99.90
4874;DHT22;2451;49.970;9.068;2022-09-28T13:52:11;13.70;99.90
4874;DHT22;2451;49.970;9.068;2022-09-28T13:54:54;13.70;99.90
4874;DHT22;2451;49.970;9.068;2022-09-28T13:57:35;13.80;99.90
4874;DHT22;2451;49.970;9.068;2022-09-28T14:00:28;13.80;99.90
4874;DHT22;2451;49.970;9.068;2022-09-28T14:02:56;13.80;99.90
4874;DHT22;2451;49.970;9.068;2022-09-28T14:08:26;13.70;99.90
4874;DHT22;2451;49.970;9.068;2022-09-28T14:10:56;13.70;99.90
4874;DHT22;2451;49.970;9.068;2022-09-28T14:16:21;13.70;99.90
4874;DHT22;2451;49.970;9.068;2022-09-28T14:22:49;13.90;99.90
4874;DHT22;2451;49.970;9.068;2022-09-28T14:28:20;14.20;99.90
4874;DHT22;2451;49.970;9.068;2022-09-28T14:30:52;14.30;99.90
4874;DHT22;2451;49.970;9.068;2022-09-28T14:35:50;14.40;99.90
4874;DHT22;2451;49.970;9.068;2022-09-28T14:38:24;14.40;99.90
4874;DHT22;2451;49.970;9.068;2022-09-28T14:56:32;14.20;99.90
4874;DHT22;2451;49.970;9.068;2022-09-28T14:58:58;14.20;99.90
4874;DHT22;2451;49.970;9.068;2022-09-28T15:01:25;14.10;99.90
4874;DHT22;2451;49.970;9.068;2022-09-28T15:03:55;14.00;99.90
4874;DHT22;2451;49.970;9.068;2022-09-28T15:06:24;13.90;99.90
4874;DHT22;2451;49.970;9.068;2022-09-28T15:08:53;13.90;99.90
4874;DHT22;2451;49.970;9.068;2022-09-28T15:11:24;13.80;99.90
4874;DHT22;2451;49.970;9.068;2022-09-28T15:14:02;13.80;99.90
4874;DHT22;2451;49.970;9.068;2022-09-28T15:16:29;13.80;99.90
4874;DHT22;2451;49.970;9.068;2022-09-28T15:19:05;13.80;99.90
4874;DHT22;2451;49.970;9.068;2022-09-28T15:21:40;13.80;99.90
4874;DHT22;2451;49.970;9.068;2022-09-28T15:24:24;13.80;99.90
4874;DHT22;2451;49.970;9.068;2022-09-28T15:26:50;13.80;99.90
4874;DHT22;2451;49.970;9.068;2022-09-28T15:29:18;13.80;99.90
4874;DHT22;2451;49.970;9.068;2022-09-28T15:31:44;13.80;99.90
4874;DHT22;2451;49.970;9.068;2022-09-28T15:34:26;13.80;99.90
4874;DHT22;2451;49.970;9.068;2022-09-28T15:37:11;13.70;99.90
4874;DHT22;2451;49.970;9.068;2022-09-28T15:39:37;13.70;99.90
4874;DHT22;2451;49.970;9.068;2022-09-28T15:42:04;13.70;99.90
4874;DHT22;2451;49.970;9.068;2022-09-28T15:44:33;13.70;99.90
4874;DHT22;2451;49.970;9.068;2022-09-28T15:47:11;13.70;99.90
4874;DHT22;2451;49.970;9.068;2022-09-28T15:50:03;13.60;99.90
4874;DHT22;2451;49.970;9.068;2022-09-28T15:52:39;13.50;99.90
4874;DHT22;2451;49.970;9.068;2022-09-28T15:55:25;13.50;99.90
4874;DHT22;2451;49.970;9.068;2022-09-28T16:00:40;13.40;99.90
4874;DHT22;2451;49.970;9.068;2022-09-28T16:05:42;13.30;99.90
4874;DHT22;2451;49.970;9.068;2022-09-28T16:08:21;13.20;99.90
4874;DHT22;2451;49.970;9.068;2022-09-28T16:11:05;13.10;99.90
4874;DHT22;2451;49.970;9.068;2022-09-28T16:13:36;13.10;99.90
4874;DHT22;2451;49.970;9.068;2022-09-28T16:16:14;13.10;99.90
4874;DHT22;2451;49.970;9.068;2022-09-28T16:18:39;13.00;99.90
4874;DHT22;2451;49.970;9.068;2022-09-28T16:21:38;12.90;99.90
4874;DHT22;2451;49.970;9.068;2022-09-28T16:24:21;12.90;99.90
4874;DHT22;2451;49.970;9.068;2022-09-28T16:26:47;12.90;99.90
4874;DHT22;2451;49.970;9.068;2022-09-28T16:29:31;12.80;99.90
4874;DHT22;2451;49.970;9.068;2022-09-28T16:37:39;12.80;99.90
4874;DHT22;2451;49.970;9.068;2022-09-28T16:40:06;12.70;99.90
4874;DHT22;2451;49.970;9.068;2022-09-28T16:42:33;12.70;99.90
4874;DHT22;2451;49.970;9.068;2022-09-28T16:44:58;12.60;99.90
4874;DHT22;2451;49.970;9.068;2022-09-28T16:47:26;12.60;99.90
4874;DHT22;2451;49.970;9.068;2022-09-28T16:50:09;12.60;99.90
4874;DHT22;2451;49.970;9.068;2022-09-28T16:52:38;12.50;99.90
4874;DHT22;2451;49.970;9.068;2022-09-28T16:55:22;12.50;99.90
4874;DHT22;2451;49.970;9.068;2022-09-28T16:57:47;12.50;99.90
4874;DHT22;2451;49.970;9.068;2022-09-28T17:00:21;12.40;99.90
4874;DHT22;2451;49.970;9.068;2022-09-28T17:02:51;12.40;99.90
4874;DHT22;2451;49.970;9.068;2022-09-28T17:05:20;12.30;99.90
4874;DHT22;2451;49.970;9.068;2022-09-28T17:07:59;12.30;99.90
4874;DHT22;2451;49.970;9.068;2022-09-28T17:10:35;12.30;99.90
4874;DHT22;2451;49.970;9.068;2022-09-28T17:13:01;12.20;99.90
4874;DHT22;2451;49.970;9.068;2022-09-28T17:15:27;12.10;99.90
4874;DHT22;2451;49.970;9.068;2022-09-28T17:17:53;12.10;99.90
4874;DHT22;2451;49.970;9.068;2022-09-28T17:20:24;12.00;99.90
4874;DHT22;2451;49.970;9.068;2022-09-28T17:22:51;12.00;99.90
4874;DHT22;2451;49.970;9.068;2022-09-28T17:25:20;11.90;99.90
4874;DHT22;2451;49.970;9.068;2022-09-28T17:27:47;11.90;99.90
4874;DHT22;2451;49.970;9.068;2022-09-28T17:30:14;11.80;99.90
4874;DHT22;2451;49.970;9.068;2022-09-28T17:32:40;11.70;99.90
4874;DHT22;2451;49.970;9.068;2022-09-28T17:35:12;11.70;99.90
4874;DHT22;2451;49.970;9.068;2022-09-28T17:37:38;11.60;99.90
4874;DHT22;2451;49.970;9.068;2022-09-28T17:42:41;11.50;99.90
4874;DHT22;2451;49.970;9.068;2022-09-28T17:45:07;11.40;99.90
4874;DHT22;2451;49.970;9.068;2022-09-28T17:47:32;11.40;99.90
4874;DHT22;2451;49.970;9.068;2022-09-28T17:49:58;11.40;99.90
4874;DHT22;2451;49.970;9.068;2022-09-28T17:52:23;11.30;99.90
4874;DHT22;2451;49.970;9.068;2022-09-28T17:54:49;11.20;99.90
4874;DHT22;2451;49.970;9.068;2022-09-28T17:57:14;11.20;99.90
4874;DHT22;2451;49.970;9.068;2022-09-28T17:59:40;11.20;99.90
4874;DHT22;2451;49.970;9.068;2022-09-28T18:02:09;11.10;99.90
4874;DHT22;2451;49.970;9.068;2022-09-28T18:04:35;11.10;99.90
4874;DHT22;2451;49.970;9.068;2022-09-28T18:07:00;11.10;99.90
4874;DHT22;2451;49.970;9.068;2022-09-28T18:09:26;11.10;99.90
4874;DHT22;2451;49.970;9.068;2022-09-28T18:12:00;11.10;99.90
4874;DHT22;2451;49.970;9.068;2022-09-28T18:14:28;11.00;99.90
4874;DHT22;2451;49.970;9.068;2022-09-28T18:16:54;11.00;99.90
4874;DHT22;2451;49.970;9.068;2022-09-28T18:19:20;11.00;99.90
4874;DHT22;2451;49.970;9.068;2022-09-28T18:21:45;10.90;99.90
4874;DHT22;2451;49.970;9.068;2022-09-28T18:24:12;10.90;99.90
4874;DHT22;2451;49.970;9.068;2022-09-28T18:26:38;10.90;99.90
4874;DHT22;2451;49.970;9.068;2022-09-28T18:29:03;10.90;99.90
4874;DHT22;2451;49.970;9.068;2022-09-28T18:31:29;10.80;99.90
4874;DHT22;2451;49.970;9.068;2022-09-28T18:33:58;10.80;99.90
4874;DHT22;2451;49.970;9.068;2022-09-28T18:36:29;10.70;99.90
4874;DHT22;2451;49.970;9.068;2022-09-28T18:38:55;10.70;99.90
4874;DHT22;2451;49.970;9.068;2022-09-28T18:41:21;10.60;99.90